Time;durP1;ratioP1;P1;durP2;ratioP2;P2;SDS_P1;SDS_P2;PMS_P1;PMS_P2;Temp;Humidity;BMP_temperature;BMP_pressure;BME280_temperature;BME280_humidity;BME280_pressure;Samples;Min_cycle;Max_cycle;Signal;HPM_P1;HPM_P2
2021/03/28 05:16:45;;;;;;;26.55;19.35;;;;;;;11.29;49.13;95500.91;827943;71;32657;-76
2021/03/28 05:31:36;;;;;;;42.03;30.00;;;;;;;11.34;48.72;95499.59;827739;71;33208;-77
2021/03/28 05:46:40;;;;;;;45.63;30.68;;;;;;;11.61;48.67;95522.11;828163;71;29673;-76
2021/03/28 06:01:26;;;;;;;49.27;34.92;;;;;;;12.73;46.52;95531.80;828201;71;30286;-76
2021/03/28 06:16:17;;;;;;;46.10;33.60;;;;;;;13.84;43.36;95544.21;828260;71;29816;-75
2021/03/28 06:31:47;;;;;;;46.90;33.28;;;;;;;15.89;47.65;95537.09;827657;71;31488;-77
2021/03/28 06:46:13;;;;;;;47.98;35.60;;;;;;;17.24;36.87;95548.45;828543;71;29702;-76
2021/03/28 07:01:23;;;;;;;50.85;36.95;;;;;;;17.90;35.32;95547.82;834461;71;32736;-77
2021/03/28 07:16:24;;;;;;;49.20;37.73;;;;;;;17.05;35.59;95566.42;828081;71;32722;-77
2021/03/28 07:31:21;;;;;;;46.02;34.98;;;;;;;15.68;37.42;95583.00;817450;71;30445;-79
2021/03/28 07:46:17;;;;;;;66.22;47.88;;;;;;;16.25;37.91;95593.86;828081;71;30245;-78
2021/03/28 08:01:35;;;;;;;58.85;46.15;;;;;;;18.35;35.79;95590.92;827451;71;32982;-78
2021/03/28 08:16:47;;;;;;;41.10;33.75;;;;;;;21.14;33.08;95599.37;827994;71;32763;-76
2021/03/28 08:31:38;;;;;;;21.10;16.75;;;;;;;21.87;30.18;95592.67;828526;71;32454;-77
2021/03/28 08:46:44;;;;;;;15.13;13.60;;;;;;;22.97;29.39;95590.48;834100;71;30721;-78
2021/03/28 09:01:54;;;;;;;12.10;10.80;;;;;;;23.74;28.63;95597.50;827841;71;32840;-79
2021/03/28 09:16:27;;;;;;;11.20;10.03;;;;;;;24.14;28.33;95591.19;828273;71;29749;-77
2021/03/28 09:31:36;;;;;;;11.57;10.47;;;;;;;24.48;28.55;95590.81;827417;71;32745;-77
2021/03/28 09:46:27;;;;;;;10.97;9.67;;;;;;;24.84;28.24;95594.27;821113;71;29815;-79
2021/03/28 10:01:45;;;;;;;10.77;9.67;;;;;;;23.83;29.68;95602.72;822774;71;33680;-79
2021/03/28 10:16:17;;;;;;;12.93;10.50;;;;;;;23.11;31.32;95600.03;828396;71;31957;-77
2021/03/28 10:31:23;;;;;;;12.20;11.00;;;;;;;23.45;31.33;95595.20;827481;71;32778;-76
2021/03/28 10:46:35;;;;;;;13.22;11.83;;;;;;;21.57;34.48;95612.91;834557;71;30695;-77
2021/03/28 11:01:35;;;;;;;14.47;10.55;;;;;;;19.85;37.90;95624.36;827502;71;32796;-79
2021/03/28 11:16:24;;;;;;;12.20;11.00;;;;;;;18.66;40.85;95640.53;834740;71;30255;-77
2021/03/28 11:31:29;;;;;;;13.25;11.57;;;;;;;17.71;42.85;95648.92;828303;71;29504;-75
2021/03/28 11:46:21;;;;;;;14.93;12.33;;;;;;;17.28;43.69;95647.56;819754;71;30374;-77
2021/03/28 12:01:58;;;;;;;17.70;15.80;;;;;;;16.75;45.15;95648.98;828367;71;33215;-82
2021/03/28 12:16:16;;;;;;;22.20;17.15;;;;;;;16.35;46.02;95642.11;828016;71;32674;-80
2021/03/28 12:31:34;;;;;;;22.93;18.75;;;;;;;16.26;45.61;95626.68;828976;71;30240;-80
2021/03/28 12:46:28;;;;;;;22.15;18.12;;;;;;;16.14;46.04;95610.48;834363;71;30087;-78
2021/03/28 13:01:28;;;;;;;21.85;18.60;;;;;;;16.25;46.16;95597.84;823628;71;32719;-80
2021/03/28 13:16:28;;;;;;;20.45;18.25;;;;;;;16.28;45.91;95580.82;834685;71;33243;-80
2021/03/28 13:31:33;;;;;;;22.22;17.73;;;;;;;16.34;45.40;95569.03;828484;71;32814;-81
2021/03/28 14:01:35;;;;;;;20.10;16.32;;;;;;;15.67;48.70;95597.29;800408;73;32864;-76
2021/03/28 14:16:19;;;;;;;19.30;17.20;;;;;;;16.25;48.73;95611.86;820843;71;33284;-83
2021/03/28 14:31:14;;;;;;;19.45;15.98;;;;;;;15.50;49.37;95608.44;829347;71;29763;-78
2021/03/28 14:46:32;;;;;;;21.35;17.02;;;;;;;15.17;50.60;95620.35;821221;71;32523;-78
2021/03/28 15:01:39;;;;;;;21.82;18.12;;;;;;;14.88;50.91;95617.09;834371;71;29698;-79
2021/03/28 15:16:23;;;;;;;21.55;15.90;;;;;;;14.58;51.31;95605.36;833814;71;32777;-77
2021/03/28 15:31:46;;;;;;;15.88;12.93;;;;;;;14.28;51.39;95622.34;814735;71;33201;-76
2021/03/28 15:46:18;;;;;;;15.13;11.95;;;;;;;13.99;51.37;95632.45;824706;71;30297;-76
2021/03/28 16:01:35;;;;;;;13.20;11.40;;;;;;;13.70;51.38;95644.33;807720;71;29839;-78
2021/03/28 16:16:43;;;;;;;11.65;10.53;;;;;;;13.43;51.42;95646.16;827284;71;33279;-79
2021/03/28 16:31:51;;;;;;;14.23;9.90;;;;;;;13.12;51.41;95655.60;827378;71;33168;-79
2021/03/28 16:46:24;;;;;;;10.68;9.50;;;;;;;12.80;51.61;95645.53;819251;71;32799;-77
